createdAt,value
2022-07-26T00:00:08.048Z,27.6
2022-07-26T00:02:22.927Z,27.4
2022-07-26T00:04:37.576Z,27.6
2022-07-26T00:06:52.465Z,27.6
2022-07-26T00:09:07.638Z,27.5
2022-07-26T00:11:22.265Z,27.6
2022-07-26T00:13:37.114Z,27.7
2022-07-26T00:15:51.955Z,27.5
2022-07-26T00:18:08.153Z,27.4
2022-07-26T00:20:21.566Z,27.6
2022-07-26T00:22:36.463Z,27.6
2022-07-26T00:24:51.257Z,27.5
2022-07-26T00:27:06.121Z,27.4
2022-07-26T00:29:21.024Z,27.4
2022-07-26T00:31:35.782Z,27.4
2022-07-26T00:33:50.830Z,27.6
2022-07-26T00:36:05.680Z,27.4
2022-07-26T00:38:20.491Z,27.4
2022-07-26T00:40:35.260Z,27.4
2022-07-26T00:42:50.004Z,27.4
2022-07-26T00:45:04.910Z,27.4
2022-07-26T00:47:19.788Z,27.4
2022-07-26T00:49:34.671Z,27.3
2022-07-26T00:51:49.508Z,27.4
2022-07-26T00:54:04.912Z,27.3
2022-07-26T00:56:19.057Z,27.3
2022-07-26T00:58:34.009Z,27.1
2022-07-26T01:00:48.898Z,27.3
2022-07-26T01:03:03.732Z,27.5
2022-07-26T01:05:18.488Z,27.1
2022-07-26T01:07:33.377Z,27.3
2022-07-26T01:09:48.416Z,27.1
2022-07-26T01:12:03.094Z,27
2022-07-26T01:14:17.878Z,27.6
2022-07-26T01:16:32.833Z,27.1
2022-07-26T01:18:47.610Z,27.2
2022-07-26T01:21:09.063Z,27
2022-07-26T01:23:17.460Z,26.9
2022-07-26T01:25:32.237Z,26.9
2022-07-26T01:27:47.048Z,26.9
2022-07-26T01:30:01.935Z,26.9
2022-07-26T01:32:16.817Z,26.9
2022-07-26T01:34:31.691Z,27
2022-07-26T01:36:46.349Z,27.2
2022-07-26T01:39:01.290Z,26.8
2022-07-26T01:41:16.194Z,26.8
2022-07-26T01:43:31.090Z,27
2022-07-26T01:45:45.925Z,26.8
2022-07-26T01:48:00.734Z,26.8
2022-07-26T01:50:15.447Z,26.8
2022-07-26T01:52:30.411Z,26.9
2022-07-26T01:54:45.291Z,26.7
2022-07-26T01:57:00.173Z,26.9
2022-07-26T01:59:15.037Z,26.6
2022-07-26T02:01:38.618Z,26.8
2022-07-26T02:03:44.842Z,26.5
2022-07-26T02:05:59.538Z,26.5
2022-07-26T02:08:14.425Z,26.4
2022-07-26T02:10:29.198Z,26.4
2022-07-26T02:12:44.149Z,26.4
2022-07-26T03:37:04.800Z,26.1
2022-07-26T03:39:19.557Z,26.1
2022-07-26T03:41:34.468Z,26.7
2022-07-26T03:43:49.289Z,26.6
2022-07-26T03:46:04.162Z,26.3
2022-07-26T03:48:18.954Z,26.6
2022-07-26T03:50:33.363Z,26.4
2022-07-26T03:52:48.664Z,26.3
2022-07-26T03:55:03.456Z,26.3
2022-07-26T03:57:18.333Z,26.4
2022-07-26T03:59:33.177Z,26.3
2022-07-26T04:01:48.080Z,26.3
2022-07-26T04:04:02.869Z,25.9
2022-07-26T04:06:17.764Z,26.4
2022-07-26T04:08:39.089Z,26.3
2022-07-26T04:10:53.945Z,26.3
2022-07-26T04:13:08.802Z,26.4
2022-07-26T04:15:23.559Z,26.3
2022-07-26T04:17:38.461Z,26.2
2022-07-26T04:19:53.313Z,26.3
2022-07-26T04:22:08.218Z,26.4
2022-07-26T04:24:25.262Z,26.4
2022-07-26T04:26:38.156Z,26.3
2022-07-26T04:28:52.756Z,25.9
2022-07-26T04:31:13.420Z,26.4
2022-07-26T04:33:28.212Z,26.2
2022-07-26T04:35:42.970Z,26.2
2022-07-26T04:37:57.821Z,26.2
2022-07-26T04:40:12.966Z,26.4
2022-07-26T04:42:27.441Z,26.4
2022-07-26T04:44:42.404Z,26.4
2022-07-26T04:46:57.192Z,26.6
2022-07-26T04:49:12.112Z,26.4
2022-07-26T04:51:26.937Z,26.6
2022-07-26T04:53:41.774Z,26.4
2022-07-26T04:55:56.541Z,26.6
2022-07-26T04:58:10.945Z,26.6
2022-07-26T05:00:38.414Z,26.6
2022-07-26T05:02:57.584Z,26.6
2022-07-26T05:05:12.204Z,26.7
2022-07-26T05:07:27.337Z,26.7
2022-07-26T05:09:41.868Z,26.8
2022-07-26T05:12:04.066Z,26.8
2022-07-26T05:14:18.397Z,26.9
2022-07-26T05:16:33.243Z,26.9
2022-07-26T05:19:06.211Z,27.1
2022-07-26T05:21:26.229Z,26.9
2022-07-26T05:23:59.838Z,27.1
2022-07-26T05:26:14.731Z,27.3
2022-07-26T05:28:29.522Z,27.3
2022-07-26T05:30:44.358Z,27.1
2022-07-26T05:32:59.193Z,27
2022-07-26T05:35:13.499Z,27.3
2022-07-26T05:37:28.932Z,27.3
2022-07-26T05:39:44.150Z,27.3
2022-07-26T05:41:58.043Z,27.2
2022-07-26T05:44:13.718Z,27.3
2022-07-26T05:46:28.533Z,27
2022-07-26T05:48:43.410Z,27.4
2022-07-26T05:50:58.377Z,27.2
2022-07-26T05:53:13.258Z,27.4
2022-07-26T05:55:28.025Z,27.3
2022-07-26T05:57:42.690Z,27.4
2022-07-26T05:59:57.666Z,27.4
2022-07-26T06:02:12.547Z,27.4
2022-07-26T06:04:27.416Z,27.3
2022-07-26T06:06:42.276Z,27.4
2022-07-26T06:08:57.118Z,27.6
2022-07-26T06:11:11.811Z,27.6
2022-07-26T06:13:26.722Z,27.7
2022-07-26T06:15:41.558Z,27.9
2022-07-26T06:20:11.369Z,28.1
2022-07-26T06:22:26.051Z,28.1
2022-07-26T06:24:46.008Z,28.4
2022-07-26T06:27:05.086Z,28.4
2022-07-26T06:29:15.677Z,28
2022-07-26T06:31:34.475Z,28.1
2022-07-26T06:33:49.942Z,28.1
2022-07-26T06:36:04.203Z,28.1
2022-07-26T06:38:18.933Z,28.3
2022-07-26T06:40:33.784Z,28.1
2022-07-26T06:42:48.764Z,28.1
2022-07-26T06:45:03.498Z,28.4
2022-07-26T06:47:18.381Z,28.6
2022-07-26T06:49:33.259Z,28.7
2022-07-26T06:51:48.059Z,29.1
2022-07-26T06:54:02.943Z,29.1
2022-07-26T06:56:17.833Z,29.2
2022-07-26T06:58:32.587Z,29.3
2022-07-26T07:00:47.894Z,29.1
2022-07-26T07:03:31.007Z,29.3
2022-07-26T07:05:49.685Z,29.1
2022-07-26T07:08:00.670Z,29.1
2022-07-26T07:10:15.441Z,28.9
2022-07-26T07:12:30.317Z,28.8
2022-07-26T07:14:45.190Z,29
2022-07-26T07:17:00.190Z,29.3
2022-07-26T07:19:14.985Z,28.9
2022-07-26T07:21:30.094Z,28.6
2022-07-26T07:23:44.728Z,29.1
2022-07-26T07:25:59.530Z,29.1
2022-07-26T07:28:14.310Z,29.4
2022-07-26T07:30:29.239Z,29.4
2022-07-26T07:32:44.046Z,29.1
2022-07-26T07:34:58.859Z,29.1
2022-07-26T07:37:13.738Z,29.5
2022-07-26T07:39:41.436Z,29.7
2022-07-26T07:41:56.024Z,29.6
2022-07-26T07:44:10.987Z,29.4
2022-07-26T07:46:25.382Z,29.4
2022-07-26T07:48:45.017Z,29.4
2022-07-26T07:50:55.120Z,29.2
2022-07-26T07:53:10.052Z,29.6
2022-07-26T07:55:43.635Z,29.5
2022-07-26T07:57:58.304Z,29.3
2022-07-26T08:00:13.234Z,29.3
2022-07-26T08:02:28.869Z,29.1
2022-07-26T08:04:42.849Z,29.1
2022-07-26T08:06:58.313Z,29.1
2022-07-26T08:09:13.611Z,29.3
2022-07-26T08:11:29.951Z,29.3
2022-07-26T08:13:47.369Z,29.4
2022-07-26T08:15:57.725Z,29.6
2022-07-26T08:18:14.067Z,29.4
2022-07-26T08:20:29.106Z,29.5
2022-07-26T08:22:44.027Z,29.4
2022-07-26T08:24:58.889Z,29.4
2022-07-26T08:27:13.502Z,29.4
2022-07-26T08:29:40.493Z,29.4
2022-07-26T08:31:55.342Z,29.6
2022-07-26T08:34:10.068Z,29.7
2022-07-26T08:36:35.493Z,30.1
2022-07-26T08:39:03.216Z,30.4
2022-07-26T08:41:18.392Z,30.6
2022-07-26T08:43:33.135Z,30.6
2022-07-26T08:45:53.036Z,30.5
2022-07-26T08:48:24.885Z,30.3
2022-07-26T08:50:39.653Z,30.3
2022-07-26T08:52:54.507Z,30.2
2022-07-26T08:55:09.183Z,30.5
2022-07-26T08:57:38.325Z,30.7
2022-07-26T08:59:53.156Z,31.1
2022-07-26T09:02:08.041Z,31.4
2022-07-26T09:04:31.464Z,31.5
2022-07-26T09:06:37.705Z,31.3
2022-07-26T09:08:52.613Z,31.1
2022-07-26T09:11:07.467Z,31.2
2022-07-26T09:13:22.362Z,31.2
2022-07-26T09:15:37.062Z,31.3
2022-07-26T09:17:52.041Z,31.4
2022-07-26T09:20:06.884Z,31.5
2022-07-26T09:22:21.814Z,31.2
2022-07-26T09:24:36.858Z,31.1
2022-07-26T09:26:51.432Z,30.9
2022-07-26T09:29:06.690Z,30.8
2022-07-26T09:31:21.210Z,30.6
2022-07-26T09:33:36.124Z,30.6
2022-07-26T09:36:08.606Z,30.6
2022-07-26T09:38:23.547Z,30.5
2022-07-26T09:40:38.359Z,30.6
2022-07-26T09:43:12.318Z,30.8
2022-07-26T09:45:27.199Z,30.6
2022-07-26T09:47:42.023Z,30.6
2022-07-26T09:50:15.063Z,30.3
2022-07-26T09:52:29.854Z,30.8
2022-07-26T09:54:44.693Z,31.3
2022-07-26T09:56:59.543Z,31.4
2022-07-26T09:59:14.389Z,31.6
2022-07-26T10:01:29.317Z,31.6
2022-07-26T10:03:44.057Z,31.8
2022-07-26T10:05:58.916Z,31.8
2022-07-26T10:08:13.876Z,31.6
2022-07-26T10:10:28.903Z,31.6
2022-07-26T10:12:43.421Z,31.6
2022-07-26T10:14:58.371Z,31.8
2022-07-26T10:17:13.276Z,31.6
2022-07-26T10:19:28.037Z,31.6
2022-07-26T10:21:42.863Z,31.6
2022-07-26T10:23:57.668Z,31.6
2022-07-26T10:26:22.436Z,31.6
2022-07-26T10:28:45.864Z,31.8
2022-07-26T10:31:08.829Z,31.7
2022-07-26T10:33:23.411Z,31.6
2022-07-26T10:35:43.251Z,31.5
2022-07-26T10:37:58.060Z,31.6
2022-07-26T10:40:12.926Z,31.6
2022-07-26T10:42:27.731Z,31.6
2022-07-26T10:45:01.831Z,31.4
2022-07-26T10:47:23.688Z,31.4
2022-07-26T10:49:37.738Z,31.4
2022-07-26T10:51:52.862Z,31.4
2022-07-26T10:54:08.662Z,31.3
2022-07-26T10:56:23.341Z,31.2
2022-07-26T10:58:38.142Z,31.4
2022-07-26T11:01:10.447Z,31.3
2022-07-26T11:03:26.498Z,31.3
2022-07-26T11:05:40.152Z,31.3
2022-07-26T11:07:55.093Z,31.3
2022-07-26T11:10:10.000Z,31.2
2022-07-26T11:12:24.988Z,31.1
2022-07-26T11:14:41.714Z,31.1
2022-07-26T11:16:54.574Z,31.1
2022-07-26T11:19:09.299Z,31.1
2022-07-26T11:21:24.266Z,31.1
2022-07-26T11:23:38.966Z,31.1
2022-07-26T11:25:53.799Z,31.1
2022-07-26T11:28:08.752Z,31
2022-07-26T11:30:23.657Z,31.1
2022-07-26T11:32:54.069Z,31
2022-07-26T11:35:08.681Z,30.9
2022-07-26T11:37:23.618Z,30.9
2022-07-26T11:39:38.428Z,30.9
2022-07-26T11:41:53.489Z,30.9
2022-07-26T11:44:08.329Z,30.9
2022-07-26T11:46:23.408Z,30.9
2022-07-26T11:48:38.272Z,30.8
2022-07-26T11:51:19.008Z,30.9
2022-07-26T11:53:33.855Z,30.8
2022-07-26T11:55:48.695Z,30.9
2022-07-26T11:58:03.511Z,30.8
2022-07-26T12:00:18.343Z,30.8
2022-07-26T12:02:33.264Z,30.9
2022-07-26T12:04:48.205Z,30.8
2022-07-26T12:07:02.988Z,30.8
2022-07-26T12:09:17.753Z,30.8
2022-07-26T12:11:32.773Z,30.8
2022-07-26T12:13:57.852Z,30.7
2022-07-26T12:16:25.081Z,30.8
2022-07-26T12:18:39.976Z,30.8
2022-07-26T12:20:55.908Z,30.7
2022-07-26T12:23:16.299Z,30.7
2022-07-26T12:25:28.760Z,30.7
2022-07-26T12:27:43.610Z,30.6
2022-07-26T12:29:58.493Z,30.7
2022-07-26T12:32:33.835Z,30.8
2022-07-26T12:34:48.711Z,30.6
2022-07-26T12:37:03.509Z,30.8
2022-07-26T12:39:18.479Z,30.6
2022-07-26T12:41:33.176Z,30.7
2022-07-26T12:43:49.177Z,30.6
2022-07-26T12:46:03.021Z,30.7
2022-07-26T12:48:17.897Z,30.6
2022-07-26T12:50:32.783Z,30.5
2022-07-26T12:52:47.529Z,30.6
2022-07-26T12:55:02.727Z,30.6
2022-07-26T12:57:17.222Z,30.7
2022-07-26T12:59:31.980Z,30.5
2022-07-26T13:01:46.897Z,30.5
2022-07-26T13:04:01.864Z,30.7
2022-07-26T13:06:16.652Z,30.6
2022-07-26T13:08:31.411Z,30.6
2022-07-26T13:11:05.050Z,30.7
2022-07-26T13:13:19.905Z,30.6
2022-07-26T13:15:35.505Z,30.8
2022-07-26T13:17:49.513Z,30.6
2022-07-26T13:20:04.617Z,30.8
2022-07-26T13:22:19.289Z,30.8
2022-07-26T13:24:34.030Z,30.6
2022-07-26T13:26:48.989Z,30.6
2022-07-26T13:29:03.970Z,30.5
2022-07-26T13:31:18.873Z,30.7
2022-07-26T13:33:33.577Z,30.6
2022-07-26T13:35:50.273Z,30.8
2022-07-26T13:38:03.267Z,30.8
2022-07-26T13:40:18.082Z,30.7
2022-07-26T13:42:32.819Z,30.7
2022-07-26T13:44:47.742Z,30.7
2022-07-26T13:47:02.538Z,30.7
2022-07-26T13:49:17.422Z,30.6
2022-07-26T13:51:32.178Z,30.7
2022-07-26T13:53:52.245Z,30.8
2022-07-26T13:56:02.029Z,30.8
2022-07-26T13:58:21.787Z,30.6
2022-07-26T14:00:36.958Z,30.7
2022-07-26T14:03:00.788Z,30.8
2022-07-26T14:05:15.635Z,30.6
2022-07-26T14:07:30.319Z,30.8
2022-07-26T14:09:45.262Z,30.6
2022-07-26T14:12:00.144Z,30.6
2022-07-26T14:14:15.380Z,30.8
2022-07-26T14:16:30.268Z,30.7
2022-07-26T14:18:44.692Z,30.7
2022-07-26T14:20:59.572Z,30.6
2022-07-26T14:23:16.045Z,30.8
2022-07-26T14:25:33.157Z,30.8
2022-07-26T14:27:45.955Z,30.8
2022-07-26T14:30:00.557Z,30.7
2022-07-26T14:32:19.518Z,30.7
2022-07-26T14:34:30.308Z,30.7
2022-07-26T14:36:45.187Z,30.6
2022-07-26T14:39:17.643Z,30.6
2022-07-26T14:41:32.385Z,30.6
2022-07-26T14:43:49.891Z,30.6
2022-07-26T14:46:02.242Z,30.6
2022-07-26T14:48:31.762Z,30.6
2022-07-26T14:51:08.986Z,30.5
2022-07-26T14:53:11.384Z,30.5
2022-07-26T14:55:26.257Z,30.6
2022-07-26T14:57:41.187Z,30.6
2022-07-26T14:59:56.041Z,30.6
2022-07-26T15:02:10.905Z,30.6
2022-07-26T15:04:25.594Z,30.6
2022-07-26T15:06:40.449Z,30.6
2022-07-26T15:08:55.398Z,30.6
2022-07-26T15:11:10.129Z,30.5
2022-07-26T15:13:24.939Z,30.8
2022-07-26T15:15:39.896Z,30.5
2022-07-26T15:17:54.758Z,30.7
2022-07-26T15:20:10.665Z,30.7
2022-07-26T15:22:24.471Z,30.6
2022-07-26T15:24:40.307Z,30.6
2022-07-26T15:26:54.256Z,30.6
2022-07-26T15:29:08.974Z,30.6
2022-07-26T15:31:24.017Z,30.4
2022-07-26T15:33:39.408Z,30.3
2022-07-26T15:35:54.250Z,30.9
2022-07-26T15:38:09.014Z,30.8
2022-07-26T15:40:23.896Z,30.8
2022-07-26T15:42:38.875Z,30.9
2022-07-26T15:45:08.606Z,30.9
2022-07-26T15:47:43.792Z,30.7
2022-07-26T15:50:02.898Z,30.6
2022-07-26T15:52:17.875Z,30.6
2022-07-26T15:54:32.739Z,30.6
2022-07-26T15:56:47.562Z,30.6
2022-07-26T15:59:02.443Z,30.8
2022-07-26T16:01:17.399Z,30.8
2022-07-26T16:03:32.076Z,30.9
2022-07-26T16:05:47.195Z,30.8
2022-07-26T16:08:01.853Z,30.8
2022-07-26T16:10:32.533Z,30.8
2022-07-26T16:12:47.139Z,30.8
2022-07-26T16:15:02.053Z,30.7
2022-07-26T16:17:16.800Z,30.8
2022-07-26T16:19:31.750Z,30.6
2022-07-26T16:21:46.540Z,30.6
2022-07-26T16:24:06.268Z,30.4
2022-07-26T16:26:16.267Z,30.4
2022-07-26T16:28:31.168Z,30.5
2022-07-26T16:30:45.948Z,30.4
2022-07-26T16:33:00.836Z,30.4
2022-07-26T16:35:15.673Z,30.4
2022-07-26T16:37:30.524Z,30.4
2022-07-26T16:39:45.362Z,30.4
2022-07-26T16:42:04.652Z,30.4
2022-07-26T16:44:15.029Z,30.5
2022-07-26T16:46:30.270Z,30.8
2022-07-26T16:48:44.790Z,30.4
2022-07-26T16:50:59.705Z,30.5
2022-07-26T16:53:14.502Z,30.6
2022-07-26T16:55:29.321Z,30.4
2022-07-26T16:57:44.085Z,30.5
2022-07-26T16:59:58.962Z,30.4
2022-07-26T17:02:13.817Z,30.3
2022-07-26T17:04:28.580Z,30.3
2022-07-26T17:06:52.259Z,30.4
2022-07-26T17:09:18.198Z,30.6
2022-07-26T17:11:33.130Z,30.4
2022-07-26T17:13:47.829Z,30.4
2022-07-26T17:16:02.943Z,30.5
2022-07-26T17:18:17.552Z,30.5
2022-07-26T17:20:32.461Z,30.5
2022-07-26T17:22:47.257Z,30.4
2022-07-26T17:25:02.100Z,30.3
2022-07-26T17:27:17.053Z,30.3
2022-07-26T17:29:31.781Z,30.4
2022-07-26T17:31:46.935Z,30.4
2022-07-26T17:34:01.710Z,30.4
2022-07-26T17:36:16.549Z,30.3
2022-07-26T17:38:31.157Z,30.4
2022-07-26T17:40:54.834Z,30.3
2022-07-26T17:43:10.058Z,30
2022-07-26T17:45:25.151Z,29.8
2022-07-26T17:47:47.475Z,30.1
2022-07-26T17:52:34.310Z,29.9
2022-07-26T17:54:50.924Z,30
2022-07-26T17:57:05.660Z,30
2022-07-26T17:59:20.607Z,30
2022-07-26T18:01:35.593Z,29.7
2022-07-26T18:03:50.280Z,29.8
2022-07-26T18:06:04.618Z,29.8
2022-07-26T18:08:19.999Z,29.7
2022-07-26T18:10:34.874Z,29.9
2022-07-26T18:12:49.620Z,29.8
2022-07-26T18:15:04.531Z,29.9
2022-07-26T18:17:19.339Z,29.8
2022-07-26T18:19:34.206Z,29.9
2022-07-26T18:21:49.049Z,29.6
2022-07-26T18:24:20.320Z,29.7
2022-07-26T18:26:35.143Z,29.5
2022-07-26T18:28:50.020Z,29.6
2022-07-26T18:31:04.741Z,29.5
2022-07-26T18:33:19.588Z,29.6
2022-07-26T18:35:34.546Z,29.4
2022-07-26T18:37:49.324Z,29.3
2022-07-26T18:40:04.176Z,29.4
2022-07-26T18:42:19.121Z,29.6
2022-07-26T18:44:34.075Z,29.5
2022-07-26T18:46:48.874Z,29.4
2022-07-26T18:49:03.820Z,29.5
2022-07-26T18:51:18.529Z,29.3
2022-07-26T18:53:33.556Z,29.1
2022-07-26T18:55:48.410Z,29.1
2022-07-26T18:58:06.667Z,28.9
2022-07-26T19:00:18.041Z,29.2
2022-07-26T19:02:32.937Z,29.4
2022-07-26T19:04:47.772Z,29.3
2022-07-26T19:07:03.239Z,29.1
2022-07-26T19:09:17.561Z,29.2
2022-07-26T19:11:32.374Z,29.1
2022-07-26T19:13:47.115Z,29
2022-07-26T19:16:02.157Z,29
2022-07-26T19:18:16.849Z,29
2022-07-26T19:20:32.112Z,28.9
2022-07-26T19:22:46.639Z,29
2022-07-26T19:25:01.510Z,28.8
2022-07-26T19:27:16.350Z,28.8
2022-07-26T19:29:31.195Z,28.7
2022-07-26T19:31:46.226Z,28.6
2022-07-26T19:34:00.867Z,28.5
2022-07-26T19:36:18.091Z,28.5
2022-07-26T19:38:30.468Z,28.4
2022-07-26T19:40:45.405Z,28.8
2022-07-26T19:43:00.272Z,28.7
2022-07-26T19:45:15.264Z,28.4
2022-07-26T19:47:30.033Z,28.4
2022-07-26T19:49:44.730Z,28.4
2022-07-26T19:51:59.829Z,28.1
2022-07-26T19:54:14.527Z,28.2
2022-07-26T19:56:29.281Z,28.4
2022-07-26T19:58:44.261Z,28.1
2022-07-26T20:00:59.101Z,28
2022-07-26T20:03:13.954Z,27.9
2022-07-26T20:07:43.587Z,27.8
2022-07-26T20:12:20.575Z,27.4
2022-07-26T20:14:35.422Z,27.4
2022-07-26T20:16:54.192Z,27.6
2022-07-26T20:19:11.631Z,27.4
2022-07-26T20:23:41.054Z,27.6
2022-07-26T20:25:56.049Z,27.6
2022-07-26T20:28:10.805Z,27.4
2022-07-26T20:30:25.684Z,27.6
2022-07-26T20:32:40.524Z,27.6
2022-07-26T20:34:55.319Z,27.4
2022-07-26T20:37:10.160Z,27.4
2022-07-26T20:39:25.057Z,27.4
2022-07-26T20:41:39.906Z,27.3
2022-07-26T20:43:54.751Z,26.9
2022-07-26T20:46:09.738Z,27
2022-07-26T20:48:24.500Z,26.8
2022-07-26T20:50:39.411Z,27.1
2022-07-26T20:52:54.528Z,26.9
2022-07-26T20:55:08.963Z,26.8
2022-07-26T20:57:23.870Z,27.1
2022-07-26T20:59:38.654Z,26.9
2022-07-26T21:01:53.546Z,27.1
2022-07-26T21:04:08.372Z,26.9
2022-07-26T21:06:23.353Z,26.8
2022-07-26T21:08:46.976Z,26.8
2022-07-26T21:11:01.813Z,26.9
2022-07-26T21:13:16.653Z,26.9
2022-07-26T21:15:31.552Z,26.7
2022-07-26T21:17:46.377Z,26.2
2022-07-26T21:20:01.310Z,26.1
2022-07-26T21:22:16.159Z,26.8
2022-07-26T21:24:33.028Z,26.4
2022-07-26T21:26:47.892Z,26.3
2022-07-26T21:29:02.889Z,26.3
2022-07-26T21:31:17.496Z,26.6
2022-07-26T21:33:32.436Z,26.8
2022-07-26T21:35:47.229Z,27.3
2022-07-26T21:38:02.050Z,27.3
2022-07-26T21:40:16.893Z,27.1
2022-07-26T21:42:31.760Z,27
2022-07-26T21:44:46.605Z,27
2022-07-26T21:47:01.436Z,26.9
2022-07-26T21:49:16.470Z,27.1
2022-07-26T21:51:31.174Z,27.3
2022-07-26T21:53:46.072Z,27.2
2022-07-26T21:56:00.828Z,27.1
2022-07-26T21:58:15.759Z,27.2
2022-07-26T22:00:31.176Z,27.1
2022-07-26T22:02:45.585Z,27.2
2022-07-26T22:05:00.245Z,27.3
2022-07-26T22:07:15.165Z,26.9
2022-07-26T22:09:29.912Z,26.9
2022-07-26T22:11:44.896Z,26.9
2022-07-26T22:13:59.642Z,27.4
2022-07-26T22:16:14.598Z,27.4
2022-07-26T22:18:29.349Z,27.4
2022-07-26T22:27:28.835Z,27.9
2022-07-26T22:29:43.708Z,28.1
2022-07-26T22:31:58.565Z,28.1
2022-07-26T22:34:13.356Z,28.1
2022-07-26T22:36:28.262Z,28
2022-07-26T22:38:43.002Z,28.3
2022-07-26T22:40:57.869Z,28
2022-07-26T22:43:30.803Z,28.5
2022-07-26T22:45:45.659Z,28.4
2022-07-26T22:48:00.405Z,28.3
2022-07-26T22:50:15.301Z,28.4
2022-07-26T22:52:30.212Z,28.4
2022-07-26T22:54:44.914Z,28.4
2022-07-26T22:57:00.052Z,28.3
2022-07-26T22:59:15.245Z,28.1
2022-07-26T23:01:29.464Z,28.4
2022-07-26T23:03:44.493Z,28.6
2022-07-26T23:06:03.417Z,28.5
2022-07-26T23:08:44.123Z,28.4
2022-07-26T23:10:48.560Z,28.3
2022-07-26T23:13:02.837Z,28.3
2022-07-26T23:15:17.771Z,28.2
2022-07-26T23:17:33.168Z,28.3
2022-07-26T23:19:47.402Z,28.2
2022-07-26T23:22:02.362Z,27.9
2022-07-26T23:24:17.217Z,28.3
2022-07-26T23:26:31.983Z,28.1
2022-07-26T23:28:54.091Z,28.1
2022-07-26T23:31:09.298Z,28.1
2022-07-26T23:33:23.784Z,28.3
2022-07-26T23:35:55.083Z,28.1
2022-07-26T23:38:10.185Z,28.1
2022-07-26T23:40:24.942Z,28.2
2022-07-26T23:42:39.718Z,28.1
2022-07-26T23:44:54.605Z,28.3
2022-07-26T23:47:09.529Z,28.2
2022-07-26T23:49:24.325Z,28.1
2022-07-26T23:51:39.074Z,28.4
2022-07-26T23:53:53.923Z,28.2
2022-07-26T23:56:08.890Z,28.1
2022-07-26T23:58:23.602Z,28.1
